createdAt,value
2018-02-09T00:00:18.645Z,71.0
2018-02-09T00:01:20.325Z,73.7
2018-02-09T00:02:22.020Z,68.4
2018-02-09T00:03:23.729Z,69.0
2018-02-09T00:04:25.427Z,73.4
2018-02-09T00:05:27.328Z,70.0
2018-02-09T00:06:29.454Z,72.2
2018-02-09T00:07:31.548Z,69.9
2018-02-09T00:08:33.252Z,72.1
2018-02-09T00:09:35.310Z,70.2
2018-02-09T00:10:37.030Z,71.2
2018-02-09T00:11:38.706Z,66.9
2018-02-09T00:12:40.599Z,74.5
2018-02-09T00:13:42.283Z,72.6
2018-02-09T00:14:44.045Z,72.4
2018-02-09T00:15:45.721Z,74.1
2018-02-09T00:16:47.428Z,74.2
2018-02-09T00:17:49.167Z,70.7
2018-02-09T00:18:50.929Z,71.2
2018-02-09T00:19:52.607Z,72.0
2018-02-09T00:20:54.410Z,70.8
2018-02-09T00:21:56.377Z,73.4
2018-02-09T00:22:58.610Z,70.3
2018-02-09T00:24:00.702Z,72.4
2018-02-09T00:25:02.371Z,74.5
2018-02-09T00:26:04.071Z,73.5
2018-02-09T00:27:05.788Z,76.2
2018-02-09T00:28:07.458Z,78.2
2018-02-09T00:29:09.144Z,75.0
2018-02-09T00:30:10.865Z,77.1
2018-02-09T00:31:12.656Z,74.2
2018-02-09T00:32:14.798Z,73.7
2018-02-09T00:33:16.545Z,74.0
2018-02-09T00:34:18.302Z,77.4
2018-02-09T00:35:20.017Z,74.5
2018-02-09T00:36:21.914Z,73.6
2018-02-09T00:37:23.698Z,75.7
2018-02-09T00:38:25.494Z,76.0
2018-02-09T00:39:27.193Z,76.3
2018-02-09T00:40:28.914Z,78.8
2018-02-09T00:41:31.017Z,77.2
2018-02-09T00:42:33.134Z,81.2
2018-02-09T00:43:35.313Z,79.3
2018-02-09T00:44:37.428Z,76.5
2018-02-09T00:45:39.597Z,75.8
2018-02-09T00:46:41.765Z,76.5
2018-02-09T00:47:43.903Z,79.2
2018-02-09T00:48:45.598Z,76.7
2018-02-09T00:49:47.305Z,73.0
2018-02-09T00:50:49.471Z,72.1
2018-02-09T00:51:52.469Z,80.1
2018-02-09T00:52:54.655Z,74.0
2018-02-09T00:53:56.863Z,73.6
2018-02-09T00:54:58.563Z,77.3
2018-02-09T00:56:00.242Z,74.4
2018-02-09T00:57:02.096Z,75.5
2018-02-09T00:58:03.803Z,77.7
2018-02-09T00:59:05.527Z,80.6
2018-02-09T01:00:07.686Z,78.2
2018-02-09T01:01:09.863Z,78.3
2018-02-09T01:02:11.583Z,77.1
2018-02-09T01:03:13.401Z,77.8
2018-02-09T01:04:15.101Z,76.5
2018-02-09T01:05:17.203Z,74.4
2018-02-09T01:06:18.941Z,79.7
2018-02-09T01:07:20.665Z,77.0
2018-02-09T01:08:22.414Z,77.4
2018-02-09T01:09:24.538Z,75.8
2018-02-09T01:10:26.738Z,80.7
2018-02-09T01:11:28.808Z,80.8
2018-02-09T01:12:30.536Z,79.4
2018-02-09T01:13:32.259Z,80.4
2018-02-09T01:14:33.987Z,84.8
2018-02-09T01:15:36.024Z,80.7
2018-02-09T01:16:37.777Z,81.3
2018-02-09T01:17:39.912Z,80.5
2018-02-09T01:18:41.600Z,82.9
2018-02-09T01:19:43.545Z,78.4
2018-02-09T01:20:45.267Z,80.1
2018-02-09T01:21:47.034Z,78.7
2018-02-09T01:22:48.998Z,83.0
2018-02-09T01:23:51.298Z,75.5
2018-02-09T01:24:53.054Z,78.3
2018-02-09T01:25:54.779Z,77.1
2018-02-09T01:26:56.482Z,79.6
2018-02-09T01:27:58.213Z,80.3
2018-02-09T01:28:59.956Z,77.2
2018-02-09T01:30:01.691Z,78.6
2018-02-09T01:31:03.464Z,77.9
2018-02-09T01:32:05.231Z,80.6
2018-02-09T01:33:06.896Z,78.8
2018-02-09T01:34:09.119Z,80.3
2018-02-09T01:35:10.804Z,77.1
2018-02-09T01:36:12.552Z,79.5
2018-02-09T01:37:14.310Z,84.6
2018-02-09T01:38:16.057Z,78.7
2018-02-09T01:39:17.870Z,80.2
2018-02-09T01:40:19.594Z,78.3
2018-02-09T01:41:21.720Z,77.2
2018-02-09T01:42:23.904Z,77.5
2018-02-09T01:43:26.109Z,78.0
2018-02-09T01:44:28.306Z,79.6
2018-02-09T01:45:30.397Z,81.4
2018-02-09T01:46:32.107Z,80.6
2018-02-09T01:47:33.914Z,82.6
2018-02-09T01:48:35.672Z,78.3
2018-02-09T01:49:37.445Z,80.3
2018-02-09T01:50:39.554Z,80.0
2018-02-09T01:51:41.657Z,83.0
2018-02-09T01:52:43.900Z,82.4
2018-02-09T01:53:45.594Z,78.7
2018-02-09T01:54:47.292Z,81.3
2018-02-09T01:55:49.024Z,79.3
2018-02-09T01:56:50.695Z,80.0
2018-02-09T01:57:53.043Z,81.4
2018-02-09T01:58:54.740Z,84.5
2018-02-09T01:59:56.484Z,80.0
2018-02-09T02:00:58.509Z,80.1
2018-02-09T02:02:00.778Z,82.1
2018-02-09T02:03:02.853Z,81.2
2018-02-09T02:04:04.560Z,82.0
2018-02-09T02:05:06.339Z,79.2
2018-02-09T02:06:08.545Z,79.4
2018-02-09T02:07:10.214Z,81.6
2018-02-09T02:08:12.386Z,81.4
2018-02-09T02:09:14.675Z,79.5
2018-02-09T02:10:16.400Z,81.1
2018-02-09T02:11:18.400Z,78.0
2018-02-09T02:12:20.108Z,78.2
2018-02-09T02:13:21.834Z,78.5
2018-02-09T02:14:23.546Z,79.5
2018-02-09T02:15:25.281Z,79.7
2018-02-09T02:16:26.987Z,79.2
2018-02-09T02:17:28.794Z,80.5
2018-02-09T02:18:30.540Z,81.8
2018-02-09T02:19:32.341Z,77.7
2018-02-09T02:20:34.083Z,82.5
2018-02-09T02:21:36.145Z,79.1
2018-02-09T02:22:38.250Z,83.3
2018-02-09T02:23:40.435Z,85.5
2018-02-09T02:24:42.573Z,79.4
2018-02-09T02:25:44.315Z,81.5
2018-02-09T02:26:46.084Z,82.6
2018-02-09T02:27:47.787Z,84.1
2018-02-09T02:28:49.914Z,76.7
2018-02-09T02:29:52.007Z,82.4
2018-02-09T02:30:54.093Z,83.2
2018-02-09T02:31:56.234Z,77.1
2018-02-09T02:32:57.940Z,85.9
2018-02-09T02:33:59.864Z,77.2
2018-02-09T02:35:01.533Z,81.2
2018-02-09T02:36:03.340Z,79.6
2018-02-09T02:37:05.523Z,78.6
2018-02-09T02:38:07.269Z,77.1
2018-02-09T02:39:08.957Z,76.8
2018-02-09T02:40:10.751Z,81.3
2018-02-09T02:41:12.810Z,79.6
2018-02-09T02:42:14.757Z,77.2
2018-02-09T02:43:16.990Z,78.6
2018-02-09T02:44:18.710Z,78.7
2018-02-09T02:45:20.433Z,76.9
2018-02-09T02:46:22.125Z,79.7
2018-02-09T02:47:23.841Z,78.5
2018-02-09T02:48:25.619Z,75.4
2018-02-09T02:49:27.287Z,79.3
2018-02-09T02:50:29.057Z,78.5
2018-02-09T02:51:30.798Z,81.8
2018-02-09T02:52:32.548Z,77.4
2018-02-09T02:53:34.277Z,80.6
2018-02-09T02:54:35.948Z,78.7
2018-02-09T02:55:38.020Z,82.3
2018-02-09T02:56:40.074Z,81.2
2018-02-09T02:57:41.709Z,81.1
2018-02-09T02:58:43.428Z,82.3
2018-02-09T02:59:45.249Z,79.8
2018-02-09T03:00:46.929Z,82.4
2018-02-09T03:01:48.683Z,81.5
2018-02-09T03:02:50.870Z,77.1
2018-02-09T03:03:52.574Z,79.8
2018-02-09T03:04:54.314Z,81.2
2018-02-09T03:05:56.082Z,82.9
2018-02-09T03:06:57.727Z,81.1
2018-02-09T03:07:59.469Z,79.2
2018-02-09T03:09:01.236Z,78.5
2018-02-09T03:10:02.921Z,76.1
2018-02-09T03:11:04.628Z,80.7
2018-02-09T03:12:06.399Z,81.3
2018-02-09T03:13:08.206Z,80.8
2018-02-09T03:14:09.979Z,81.1
2018-02-09T03:15:11.643Z,79.9
2018-02-09T03:16:13.348Z,80.8
2018-02-09T03:17:15.086Z,76.7
2018-02-09T03:18:17.202Z,77.1
2018-02-09T03:19:19.435Z,79.3
2018-02-09T03:20:21.115Z,81.5
2018-02-09T03:21:22.995Z,81.4
2018-02-09T03:22:24.636Z,76.1
2018-02-09T03:23:26.695Z,80.0
2018-02-09T03:24:28.435Z,82.5
2018-02-09T03:25:30.581Z,82.3
2018-02-09T03:26:32.278Z,77.9
2018-02-09T03:27:34.270Z,77.8
2018-02-09T03:28:36.505Z,78.2
2018-02-09T03:29:38.214Z,81.1
2018-02-09T03:30:39.978Z,77.7
2018-02-09T03:31:41.828Z,82.5
2018-02-09T03:32:43.895Z,78.5
2018-02-09T03:33:46.087Z,75.9
2018-02-09T03:34:48.167Z,81.5
2018-02-09T03:35:49.921Z,76.8
2018-02-09T03:36:51.607Z,77.4
2018-02-09T03:37:53.355Z,79.9
2018-02-09T03:38:55.066Z,77.2
2018-02-09T03:39:56.832Z,82.5
2018-02-09T03:40:58.568Z,79.0
2018-02-09T03:42:00.738Z,78.9
2018-02-09T03:43:03.177Z,77.1
2018-02-09T03:44:05.573Z,79.4
2018-02-09T03:45:07.610Z,76.9
2018-02-09T03:46:09.882Z,75.0
2018-02-09T03:47:11.602Z,80.5
2018-02-09T03:48:13.350Z,78.7
2018-02-09T03:49:15.073Z,79.8
2018-02-09T03:50:16.770Z,79.6
2018-02-09T03:51:18.499Z,78.2
2018-02-09T03:52:20.192Z,78.5
2018-02-09T03:53:22.015Z,78.9
2018-02-09T03:54:23.720Z,79.6
2018-02-09T03:55:25.487Z,77.5
2018-02-09T03:56:27.191Z,77.5
2018-02-09T03:57:28.979Z,77.7
2018-02-09T03:58:30.692Z,79.1
2018-02-09T03:59:32.817Z,76.6
2018-02-09T04:00:34.519Z,77.3
2018-02-09T04:01:36.236Z,77.3
2018-02-09T04:02:37.943Z,76.6
2018-02-09T04:03:39.661Z,76.8
2018-02-09T04:04:41.357Z,76.0
2018-02-09T04:05:43.521Z,78.0
2018-02-09T04:06:45.538Z,76.9
2018-02-09T04:07:47.218Z,75.3
2018-02-09T04:08:48.898Z,76.8
2018-02-09T04:09:51.145Z,75.4
2018-02-09T04:10:53.248Z,75.3
2018-02-09T04:11:54.944Z,75.0
2018-02-09T04:12:56.706Z,74.7
2018-02-09T04:13:58.415Z,73.9
2018-02-09T04:15:00.137Z,73.6
2018-02-09T04:16:01.810Z,76.2
2018-02-09T04:17:04.020Z,77.1
2018-02-09T04:18:05.792Z,76.8
2018-02-09T04:19:07.533Z,78.3
2018-02-09T04:20:09.234Z,77.1
2018-02-09T04:21:11.362Z,78.6
2018-02-09T04:22:13.101Z,77.8
2018-02-09T04:23:15.104Z,76.7
2018-02-09T04:24:16.841Z,81.6
2018-02-09T04:25:18.801Z,78.3
2018-02-09T04:26:20.876Z,79.0
2018-02-09T04:27:22.938Z,78.8
2018-02-09T04:28:24.673Z,77.0
2018-02-09T04:29:26.425Z,76.1
2018-02-09T04:30:28.110Z,74.7
2018-02-09T04:31:29.788Z,76.0
2018-02-09T04:32:31.819Z,76.4
2018-02-09T04:33:33.932Z,76.2
2018-02-09T04:34:35.616Z,78.4
2018-02-09T04:35:37.314Z,76.9
2018-02-09T04:36:39.095Z,76.5
2018-02-09T04:37:41.201Z,77.9
2018-02-09T04:38:42.993Z,79.3
2018-02-09T04:39:44.781Z,76.1
2018-02-09T04:40:46.633Z,76.9
2018-02-09T04:41:48.504Z,81.5
2018-02-09T04:42:50.283Z,75.8
2018-02-09T04:43:52.406Z,78.0
2018-02-09T04:44:54.106Z,76.7
2018-02-09T04:45:56.037Z,76.6
2018-02-09T04:46:58.113Z,77.4
2018-02-09T04:47:59.825Z,74.7
2018-02-09T04:49:01.573Z,76.5
2018-02-09T04:50:03.665Z,73.6
2018-02-09T04:51:05.907Z,78.0
2018-02-09T04:52:07.566Z,74.0
2018-02-09T04:53:09.348Z,77.5
2018-02-09T04:54:11.112Z,76.0
2018-02-09T04:55:12.847Z,73.6
2018-02-09T04:56:14.623Z,76.6
2018-02-09T04:57:16.787Z,78.3
2018-02-09T04:58:18.907Z,77.8
2018-02-09T04:59:21.130Z,78.0
2018-02-09T05:00:22.822Z,76.1
2018-02-09T05:01:24.527Z,76.8
2018-02-09T05:02:26.224Z,77.0
2018-02-09T05:03:27.953Z,74.4
2018-02-09T05:04:29.668Z,78.2
2018-02-09T05:05:31.376Z,77.9
2018-02-09T05:06:33.106Z,77.0
2018-02-09T05:07:35.189Z,77.4
2018-02-09T05:08:37.345Z,78.8
2018-02-09T05:09:39.056Z,73.0
2018-02-09T05:10:40.755Z,80.5
2018-02-09T05:11:42.523Z,78.5
2018-02-09T05:12:44.283Z,79.4
2018-02-09T05:13:46.361Z,73.9
2018-02-09T05:14:48.113Z,77.4
2018-02-09T05:15:49.841Z,75.3
2018-02-09T05:16:51.578Z,76.9
2018-02-09T05:17:53.375Z,77.2
2018-02-09T05:18:55.058Z,74.3
2018-02-09T05:19:56.958Z,74.5
2018-02-09T05:20:59.176Z,74.8
2018-02-09T05:22:00.870Z,77.2
2018-02-09T05:23:02.648Z,75.5
2018-02-09T05:24:05.281Z,76.4
2018-02-09T05:25:07.443Z,75.8
2018-02-09T05:26:09.178Z,71.8
2018-02-09T05:27:10.920Z,73.4
2018-02-09T05:28:12.596Z,75.3
2018-02-09T05:29:14.315Z,75.7
2018-02-09T05:30:17.457Z,76.5
2018-02-09T05:31:22.991Z,75.9
2018-02-09T05:32:25.312Z,74.7
2018-02-09T05:33:27.013Z,77.8
2018-02-09T05:34:28.755Z,73.6
2018-02-09T05:35:30.431Z,72.3
2018-02-09T05:36:32.142Z,75.3
2018-02-09T05:37:34.842Z,76.3
2018-02-09T05:38:37.635Z,79.3
2018-02-09T05:39:40.123Z,76.1
2018-02-09T05:40:41.881Z,78.0
2018-02-09T05:41:44.282Z,73.1
2018-02-09T05:42:46.168Z,77.9
2018-02-09T05:43:48.784Z,75.0
2018-02-09T05:44:51.264Z,76.4
2018-02-09T05:45:53.064Z,75.7
2018-02-09T05:46:56.375Z,75.2
2018-02-09T05:47:58.028Z,74.0
2018-02-09T05:49:01.656Z,78.2
2018-02-09T05:50:03.225Z,77.9
2018-02-09T05:51:04.980Z,76.5
2018-02-09T05:52:06.784Z,74.4
2018-02-09T05:53:08.612Z,76.6
2018-02-09T05:54:10.409Z,78.8
2018-02-09T05:55:12.264Z,75.6
2018-02-09T05:56:14.210Z,80.2
2018-02-09T05:57:15.982Z,74.5
2018-02-09T05:58:17.787Z,77.9
2018-02-09T05:59:19.476Z,76.4
2018-02-09T06:00:28.272Z,75.9
2018-02-09T06:01:29.847Z,79.7
2018-02-09T06:02:31.512Z,72.6
2018-02-09T06:03:33.242Z,78.7
2018-02-09T06:04:39.335Z,79.3
2018-02-09T06:05:41.061Z,74.2
2018-02-09T06:06:42.774Z,76.2
2018-02-09T06:07:44.497Z,78.4
2018-02-09T06:08:47.134Z,77.7
2018-02-09T06:09:48.846Z,76.6
2018-02-09T06:10:50.552Z,72.2
2018-02-09T06:11:52.304Z,76.0
2018-02-09T06:12:57.820Z,80.1
2018-02-09T06:13:59.713Z,74.5
2018-02-09T06:15:01.439Z,77.8
2018-02-09T06:16:03.149Z,80.3
2018-02-09T06:17:04.901Z,75.0
2018-02-09T06:18:06.626Z,76.1
2018-02-09T06:19:08.497Z,76.0
2018-02-09T06:20:10.558Z,78.8
2018-02-09T06:21:12.750Z,77.2
2018-02-09T06:22:15.958Z,77.8
2018-02-09T06:23:18.203Z,75.1
2018-02-09T06:24:19.933Z,75.5
2018-02-09T06:25:21.639Z,79.2
2018-02-09T06:26:24.197Z,74.8
2018-02-09T06:27:26.820Z,75.5
2018-02-09T06:28:28.606Z,81.3
2018-02-09T06:29:31.574Z,74.0
2018-02-09T06:30:35.970Z,76.8
2018-02-09T06:31:37.825Z,76.2
2018-02-09T06:32:40.235Z,77.5
2018-02-09T06:33:41.986Z,74.4
2018-02-09T06:34:45.694Z,76.7
2018-02-09T06:35:47.713Z,75.6
2018-02-09T06:36:49.426Z,75.4
2018-02-09T06:37:51.107Z,74.2
2018-02-09T06:38:52.807Z,75.2
2018-02-09T06:39:56.183Z,75.8
2018-02-09T06:40:58.014Z,75.2
2018-02-09T06:43:10.030Z,77.8
2018-02-09T09:59:12.039Z,79.7
2018-02-09T10:00:54.520Z,86.5
2018-02-09T10:01:57.943Z,88.1
2018-02-09T10:03:00.248Z,84.5
2018-02-09T10:04:05.314Z,87.9
2018-02-09T10:05:07.458Z,87.3
2018-02-09T10:06:09.727Z,86.3
2018-02-09T10:07:12.022Z,85.3
2018-02-09T10:08:14.398Z,82.8
2018-02-09T10:09:17.554Z,82.7
2018-02-09T10:10:19.968Z,87.1
2018-02-09T10:11:22.294Z,82.5
2018-02-09T10:12:24.542Z,85.2
2018-02-09T10:13:27.188Z,85.6
2018-02-09T10:14:29.939Z,84.9
2018-02-09T10:15:35.824Z,83.6
2018-02-09T10:16:38.326Z,91.7
2018-02-09T10:17:40.539Z,92.3
2018-02-09T10:18:42.316Z,88.1
2018-02-09T10:19:44.932Z,82.9
2018-02-09T10:20:47.468Z,84.7
2018-02-09T10:21:49.964Z,90.4
2018-02-09T10:22:52.668Z,93.2
2018-02-09T10:23:54.825Z,87.3
2018-02-09T10:24:57.292Z,86.3
2018-02-09T10:25:59.865Z,89.6
2018-02-09T10:27:02.892Z,90.4
2018-02-09T10:28:06.162Z,88.3
2018-02-09T10:29:10.889Z,91.6
2018-02-09T10:30:13.104Z,89.0
2018-02-09T10:31:15.546Z,90.4
2018-02-09T10:32:18.355Z,91.0
2018-02-09T10:33:21.576Z,88.6
2018-02-09T10:34:27.735Z,89.8
2018-02-09T10:35:29.947Z,85.7
2018-02-09T10:36:32.467Z,86.6
2018-02-09T10:37:34.770Z,86.6
2018-02-09T10:38:37.364Z,86.7
2018-02-09T10:39:39.498Z,88.5
2018-02-09T10:40:41.840Z,89.8
2018-02-09T10:41:44.073Z,90.0
2018-02-09T10:42:46.206Z,88.2
2018-02-09T10:43:49.054Z,87.4
2018-02-09T10:44:51.340Z,84.1
2018-02-09T10:45:53.947Z,87.4
2018-02-09T10:46:57.353Z,82.6
2018-02-09T10:48:00.083Z,87.5
2018-02-09T10:49:02.611Z,84.1
2018-02-09T10:50:05.851Z,84.4
2018-02-09T10:51:08.168Z,83.6
2018-02-09T10:52:11.075Z,82.4
2018-02-09T10:53:13.608Z,83.8
2018-02-09T10:54:15.905Z,83.2
2018-02-09T10:55:18.627Z,83.8
2018-02-09T10:56:21.387Z,85.2
2018-02-09T10:57:27.558Z,87.2
2018-02-09T10:58:29.984Z,87.8
2018-02-09T10:59:33.820Z,86.4
2018-02-09T11:00:36.533Z,81.9
2018-02-09T11:01:41.229Z,80.2
2018-02-09T11:02:44.516Z,82.0
2018-02-09T11:03:47.002Z,87.1
2018-02-09T11:04:49.876Z,78.6
2018-02-09T11:05:53.186Z,79.7
2018-02-09T11:06:56.145Z,81.6
2018-02-09T11:07:59.879Z,83.7
2018-02-09T11:09:02.107Z,79.5
2018-02-09T11:10:04.321Z,79.9
2018-02-09T11:11:07.625Z,82.3
2018-02-09T11:12:10.111Z,79.1
2018-02-09T11:13:12.324Z,78.5
2018-02-09T11:14:15.022Z,80.3
2018-02-09T11:15:18.265Z,78.8
2018-02-09T11:16:23.040Z,82.5
2018-02-09T11:17:27.119Z,81.3
2018-02-09T11:18:29.838Z,81.2
2018-02-09T11:19:33.384Z,79.4
2018-02-09T11:20:35.359Z,79.7
2018-02-09T11:21:37.758Z,80.8
2018-02-09T11:22:40.071Z,80.1
2018-02-09T11:23:42.716Z,81.0
2018-02-09T11:24:44.992Z,77.8
2018-02-09T11:25:47.260Z,76.9
2018-02-09T11:26:49.152Z,79.7
2018-02-09T11:27:51.526Z,79.2
2018-02-09T11:28:54.194Z,77.3
2018-02-09T11:29:56.518Z,75.3
2018-02-09T11:30:58.997Z,80.5
2018-02-09T11:32:01.322Z,78.2
2018-02-09T11:33:04.358Z,78.3
2018-02-09T11:34:07.130Z,78.2
2018-02-09T11:35:09.198Z,77.6
2018-02-09T11:36:11.411Z,76.7
2018-02-09T11:37:13.446Z,74.3
2018-02-09T11:38:15.722Z,76.4
2018-02-09T11:39:17.727Z,79.4
2018-02-09T11:40:20.646Z,75.6
2018-02-09T11:41:22.576Z,78.4
2018-02-09T11:42:24.663Z,77.7
2018-02-09T11:43:26.698Z,80.6
2018-02-09T11:44:28.880Z,74.8
2018-02-09T11:45:31.134Z,76.3
2018-02-09T11:46:33.371Z,78.8
2018-02-09T11:47:35.557Z,77.7
2018-02-09T11:48:37.916Z,77.8
2018-02-09T11:49:40.642Z,79.3
2018-02-09T11:50:42.903Z,75.7
2018-02-09T11:51:45.176Z,76.6
2018-02-09T11:52:47.530Z,74.8
2018-02-09T11:53:50.178Z,81.2
2018-02-09T11:54:52.301Z,77.3
2018-02-09T11:55:54.670Z,77.5
2018-02-09T11:56:57.882Z,75.2
2018-02-09T11:57:59.964Z,78.8
2018-02-09T11:59:02.292Z,75.9
2018-02-09T12:00:04.877Z,79.3
2018-02-09T12:01:07.614Z,75.9
2018-02-09T12:02:10.732Z,74.7
2018-02-09T12:03:12.961Z,73.8
2018-02-09T12:04:15.304Z,71.3
2018-02-09T12:05:17.514Z,69.5
2018-02-09T12:06:19.905Z,71.2
2018-02-09T12:07:22.139Z,71.4
2018-02-09T12:08:24.171Z,72.9
2018-02-09T12:09:26.256Z,68.6
2018-02-09T12:10:28.071Z,69.3
2018-02-09T12:11:30.172Z,71.2
2018-02-09T12:12:32.479Z,70.4
2018-02-09T12:13:34.627Z,66.8
2018-02-09T12:14:37.763Z,69.1
2018-02-09T12:15:39.945Z,65.9
2018-02-09T12:16:42.070Z,67.8
2018-02-09T12:17:44.177Z,69.0
2018-02-09T12:18:46.570Z,71.0
2018-02-09T12:19:48.626Z,71.4
2018-02-09T12:20:51.036Z,70.2
2018-02-09T12:21:53.218Z,67.4
2018-02-09T12:22:56.498Z,69.4
2018-02-09T12:23:58.970Z,68.9
2018-02-09T12:25:01.094Z,68.2
2018-02-09T12:26:03.391Z,68.1
2018-02-09T12:27:05.736Z,71.3
2018-02-09T12:28:08.020Z,68.2
2018-02-09T12:29:10.025Z,62.5
2018-02-09T12:30:12.091Z,68.6
2018-02-09T12:31:15.188Z,70.0
2018-02-09T12:32:17.401Z,67.0
2018-02-09T12:33:19.866Z,66.6
2018-02-09T12:34:22.218Z,67.2
2018-02-09T12:35:24.701Z,65.2
2018-02-09T12:36:27.304Z,67.5
2018-02-09T12:37:32.435Z,63.7
2018-02-09T12:38:34.988Z,62.9
2018-02-09T12:39:43.230Z,65.2
2018-02-09T12:40:45.228Z,62.0
2018-02-09T12:41:47.842Z,61.1
2018-02-09T12:42:49.806Z,61.1
2018-02-09T12:43:51.962Z,61.8
2018-02-09T12:44:54.392Z,59.6
2018-02-09T12:45:57.036Z,61.2
2018-02-09T12:46:59.470Z,59.1
2018-02-09T12:48:01.908Z,59.0
2018-02-09T12:49:04.168Z,61.0
2018-02-09T12:50:06.791Z,61.4
2018-02-09T12:51:14.651Z,59.4
2018-02-09T12:52:16.753Z,60.0
2018-02-09T12:53:18.870Z,62.1
2018-02-09T12:54:21.065Z,60.7
2018-02-09T12:55:23.431Z,61.5
2018-02-09T12:56:25.893Z,59.5
2018-02-09T12:57:28.136Z,60.5
2018-02-09T12:58:30.449Z,58.2
2018-02-09T12:59:33.992Z,60.9
2018-02-09T13:00:36.781Z,63.6
2018-02-09T13:01:41.458Z,58.8
2018-02-09T13:02:43.646Z,57.8
2018-02-09T13:03:46.909Z,58.6
2018-02-09T13:04:49.837Z,58.0
2018-02-09T13:05:54.495Z,58.6
2018-02-09T13:06:58.093Z,59.6
2018-02-09T13:08:00.640Z,60.5
2018-02-09T13:09:02.772Z,58.8
2018-02-09T13:10:05.255Z,62.3
2018-02-09T13:11:07.697Z,62.0
2018-02-09T13:12:11.695Z,60.1
2018-02-09T13:13:15.494Z,59.8
2018-02-09T13:14:18.265Z,61.3
2018-02-09T13:15:20.455Z,59.4
2018-02-09T13:16:24.301Z,60.9
2018-02-09T13:17:26.791Z,59.9
2018-02-09T13:18:28.815Z,58.1
2018-02-09T13:19:30.744Z,58.8
2018-02-09T13:20:33.685Z,58.6
2018-02-09T13:21:35.664Z,57.2
2018-02-09T13:22:38.117Z,60.9
2018-02-09T13:23:40.299Z,62.4
2018-02-09T13:24:42.569Z,64.1
2018-02-09T13:25:44.720Z,62.1
2018-02-09T13:26:48.408Z,60.4
2018-02-09T13:27:53.275Z,61.4
2018-02-09T13:28:55.646Z,61.1
2018-02-09T13:29:57.888Z,58.6
2018-02-09T13:31:01.822Z,59.8
2018-02-09T13:32:04.241Z,57.5
2018-02-09T13:33:06.679Z,59.2
2018-02-09T13:34:09.040Z,60.9
2018-02-09T13:35:10.878Z,61.1
2018-02-09T13:36:13.088Z,56.8
2018-02-09T13:37:15.365Z,56.8
2018-02-09T13:38:20.309Z,58.5
2018-02-09T13:39:23.343Z,57.2
2018-02-09T13:40:25.371Z,58.6
2018-02-09T13:41:27.526Z,57.1
2018-02-09T13:42:31.128Z,56.9
2018-02-09T13:43:33.341Z,53.7
2018-02-09T13:44:36.468Z,55.8
2018-02-09T13:45:38.641Z,58.4
2018-02-09T13:46:40.876Z,55.5
2018-02-09T13:47:42.909Z,51.7
2018-02-09T13:48:45.581Z,56.9
2018-02-09T13:49:47.522Z,56.5
2018-02-09T13:50:50.011Z,55.2
2018-02-09T13:51:54.536Z,52.5
2018-02-09T13:52:56.667Z,56.6
2018-02-09T13:53:59.833Z,53.4
2018-02-09T13:55:01.999Z,55.1
2018-02-09T13:56:04.557Z,53.9
2018-02-09T13:57:07.057Z,54.2
2018-02-09T13:58:09.623Z,58.3
2018-02-09T13:59:12.684Z,52.6
2018-02-09T14:00:15.985Z,53.1
2018-02-09T14:01:19.531Z,54.0
2018-02-09T14:02:22.130Z,52.5
2018-02-09T14:03:24.574Z,57.5
2018-02-09T14:04:26.753Z,55.4
2018-02-09T14:05:28.721Z,55.4
2018-02-09T14:06:33.635Z,53.9
2018-02-09T14:07:36.046Z,53.6
2018-02-09T14:08:39.311Z,55.3
2018-02-09T14:09:41.693Z,58.9
2018-02-09T14:10:43.851Z,56.5
2018-02-09T14:11:46.250Z,53.3
2018-02-09T14:12:49.954Z,53.4
2018-02-09T14:13:52.384Z,57.4
2018-02-09T14:14:54.582Z,54.0
2018-02-09T14:15:57.014Z,60.2
2018-02-09T14:16:59.282Z,54.5
2018-02-09T14:18:01.521Z,58.2
2018-02-09T14:19:03.785Z,59.9
2018-02-09T14:20:06.038Z,56.6
2018-02-09T14:21:08.210Z,60.4
2018-02-09T14:22:10.600Z,60.7
2018-02-09T14:23:12.861Z,58.4
2018-02-09T14:24:14.834Z,58.4
2018-02-09T14:25:16.935Z,58.2
2018-02-09T14:26:19.065Z,60.3
2018-02-09T14:27:21.320Z,59.6
2018-02-09T14:28:23.099Z,58.2
2018-02-09T14:29:25.729Z,62.4
2018-02-09T14:30:27.862Z,59.5
2018-02-09T14:31:30.241Z,58.1
2018-02-09T14:32:32.605Z,64.8
2018-02-09T14:33:34.846Z,62.9
2018-02-09T14:34:39.283Z,61.6
2018-02-09T14:35:41.608Z,64.7
2018-02-09T14:36:43.692Z,63.2
2018-02-09T14:37:45.874Z,61.5
2018-02-09T14:38:48.237Z,61.5
2018-02-09T14:39:50.753Z,63.6
2018-02-09T14:40:52.953Z,63.7
2018-02-09T14:41:55.388Z,61.2
2018-02-09T14:42:57.573Z,59.5
2018-02-09T14:44:00.255Z,64.5
2018-02-09T14:45:02.566Z,62.5
2018-02-09T14:46:05.952Z,62.2
2018-02-09T14:47:08.562Z,60.0
2018-02-09T14:48:11.010Z,60.6
2018-02-09T14:49:17.595Z,62.4
2018-02-09T14:50:19.928Z,64.4
2018-02-09T14:51:22.140Z,59.7
2018-02-09T14:52:24.258Z,61.8
2018-02-09T14:53:26.627Z,61.5
2018-02-09T14:54:33.041Z,61.0
2018-02-09T14:55:34.348Z,58.2
2018-02-09T14:56:36.802Z,63.9
2018-02-09T14:57:39.039Z,59.7
2018-02-09T14:58:41.660Z,61.7
2018-02-09T14:59:44.129Z,60.5
2018-02-09T15:00:46.926Z,59.1
2018-02-09T15:01:49.517Z,60.5
2018-02-09T15:02:51.545Z,61.3
2018-02-09T15:03:53.767Z,58.7
2018-02-09T15:04:55.930Z,55.4
2018-02-09T15:05:58.293Z,59.5
2018-02-09T15:07:02.880Z,56.9
2018-02-09T15:08:04.985Z,57.7
2018-02-09T15:09:07.147Z,56.3
2018-02-09T15:10:09.396Z,52.0
2018-02-09T15:11:11.491Z,51.5
2018-02-09T15:12:14.654Z,52.0
2018-02-09T15:13:17.213Z,47.8
2018-02-09T15:14:19.496Z,47.0
2018-02-09T15:15:22.715Z,50.5
2018-02-09T15:16:26.777Z,52.3
2018-02-09T15:17:29.088Z,51.4
2018-02-09T15:18:31.429Z,49.5
2018-02-09T15:19:33.253Z,49.2
2018-02-09T15:20:35.448Z,49.8
2018-02-09T15:21:39.293Z,50.2
2018-02-09T15:22:41.501Z,49.0
2018-02-09T15:23:43.616Z,48.9
2018-02-09T15:24:45.846Z,45.7
2018-02-09T15:25:48.115Z,45.8
2018-02-09T15:26:51.920Z,45.1
2018-02-09T15:27:56.286Z,45.0
2018-02-09T15:28:59.865Z,45.5
2018-02-09T15:30:02.211Z,47.2
2018-02-09T15:31:04.260Z,47.2
2018-02-09T15:32:06.568Z,43.6
2018-02-09T15:33:11.156Z,45.3
2018-02-09T15:34:13.362Z,45.7
2018-02-09T15:35:15.916Z,44.2
2018-02-09T15:36:18.575Z,44.5
2018-02-09T15:37:21.011Z,45.8
2018-02-09T15:38:23.381Z,47.0
2018-02-09T15:39:25.644Z,47.8
2018-02-09T15:40:28.112Z,46.7
2018-02-09T15:41:30.066Z,47.2
2018-02-09T15:42:33.872Z,47.7
2018-02-09T15:43:35.994Z,48.8
2018-02-09T15:44:38.180Z,49.0
2018-02-09T15:45:40.452Z,47.6
2018-02-09T15:46:42.720Z,51.6
2018-02-09T15:47:45.133Z,49.7
2018-02-09T15:48:47.380Z,48.4
2018-02-09T15:49:49.728Z,47.4
2018-02-09T15:50:53.487Z,48.4
2018-02-09T15:51:56.331Z,48.4
2018-02-09T15:52:58.566Z,48.0
2018-02-09T15:54:00.668Z,49.4
2018-02-09T15:55:03.021Z,47.7
2018-02-09T15:56:05.286Z,50.4
2018-02-09T15:57:08.523Z,51.9
2018-02-09T15:58:11.577Z,47.7
2018-02-09T15:59:17.964Z,48.8
2018-02-09T16:00:23.107Z,48.1
2018-02-09T16:01:26.614Z,51.1
2018-02-09T16:02:39.080Z,49.2
2018-02-09T16:03:43.090Z,50.2
2018-02-09T16:04:45.646Z,46.9
2018-02-09T16:05:48.037Z,49.0
2018-02-09T16:06:50.339Z,46.7
2018-02-09T16:07:53.379Z,45.6
2018-02-09T16:08:57.035Z,50.5
2018-02-09T16:09:59.184Z,42.3
2018-02-09T16:11:01.488Z,41.8
2018-02-09T16:12:03.731Z,42.5
2018-02-09T16:13:06.133Z,44.5
2018-02-09T16:14:08.420Z,45.2
2018-02-09T16:15:14.802Z,43.4
2018-02-09T16:16:16.893Z,45.2
2018-02-09T16:17:19.399Z,42.2
2018-02-09T16:18:21.725Z,43.4
2018-02-09T16:19:24.205Z,44.1
2018-02-09T16:20:26.495Z,44.3
2018-02-09T16:21:28.888Z,41.4
2018-02-09T16:22:31.241Z,41.4
2018-02-09T16:23:33.602Z,41.1
2018-02-09T16:24:36.009Z,42.8
2018-02-09T16:25:38.168Z,42.1
2018-02-09T16:26:40.327Z,39.3
2018-02-09T16:27:42.478Z,41.1
2018-02-09T16:28:44.815Z,40.8
2018-02-09T16:29:47.047Z,41.8
2018-02-09T16:30:49.474Z,42.5
2018-02-09T16:31:51.820Z,41.0
2018-02-09T16:32:54.100Z,42.7
2018-02-09T16:33:56.375Z,39.0
2018-02-09T16:34:59.859Z,36.7
2018-02-09T16:36:02.217Z,39.3
2018-02-09T16:37:04.550Z,37.5
2018-02-09T16:38:06.794Z,39.4
2018-02-09T16:39:09.047Z,35.9
2018-02-09T16:40:11.346Z,37.2
2018-02-09T16:41:13.530Z,37.2
2018-02-09T16:42:15.844Z,39.9
2018-02-09T16:43:18.138Z,34.9
2018-02-09T16:44:20.400Z,34.1
2018-02-09T16:45:22.473Z,32.1
2018-02-09T16:46:24.815Z,32.6
2018-02-09T16:47:27.112Z,32.6
2018-02-09T16:48:36.182Z,32.6
2018-02-09T16:49:38.312Z,32.5
2018-02-09T16:50:40.539Z,32.4
2018-02-09T16:51:42.854Z,30.0
2018-02-09T16:52:45.493Z,33.5
2018-02-09T16:53:48.095Z,33.7
2018-02-09T16:54:50.242Z,31.4
2018-02-09T16:55:52.836Z,32.0
2018-02-09T16:56:54.750Z,33.4
2018-02-09T16:57:56.993Z,32.6
2018-02-09T16:58:59.231Z,32.7
2018-02-09T17:00:02.258Z,34.7
2018-02-09T17:01:04.578Z,32.5
2018-02-09T17:02:09.500Z,31.8
2018-02-09T17:03:12.372Z,33.1
2018-02-09T17:04:14.679Z,34.7
2018-02-09T17:05:16.986Z,31.7
2018-02-09T17:06:19.203Z,32.1